createdAt,value
2019-03-11T00:00:57.864Z,3.95
2019-03-11T00:01:57.787Z,4.02
2019-03-11T00:03:50.566Z,3.92
2019-03-11T00:04:50.490Z,3.95
2019-03-11T00:06:43.271Z,4.07
2019-03-11T00:07:43.173Z,4.07
2019-03-11T00:09:35.930Z,4.04
2019-03-11T00:10:35.858Z,4.00
2019-03-11T00:12:28.623Z,4.06
2019-03-11T00:13:28.614Z,4.10
2019-03-11T00:15:21.304Z,4.00
2019-03-11T00:16:21.233Z,4.07
2019-03-11T00:18:14.006Z,4.06
2019-03-11T00:19:13.926Z,4.06
2019-03-11T00:21:06.698Z,4.10
2019-03-11T00:22:06.632Z,4.04
2019-03-11T00:23:59.392Z,3.93
2019-03-11T00:24:59.306Z,3.93
2019-03-11T00:26:52.098Z,4.06
2019-03-11T00:27:51.994Z,3.99
2019-03-11T00:29:44.749Z,4.08
2019-03-11T00:30:44.678Z,4.04
2019-03-11T00:32:37.451Z,4.06
2019-03-11T00:33:37.368Z,4.00
2019-03-11T00:35:30.135Z,3.95
2019-03-11T00:36:30.065Z,3.93
2019-03-11T00:38:22.846Z,3.90
2019-03-11T00:39:22.787Z,3.86
2019-03-11T00:41:15.505Z,3.81
2019-03-11T00:42:15.456Z,3.86
2019-03-11T00:44:08.209Z,3.88
2019-03-11T00:45:08.134Z,3.92
2019-03-11T00:47:00.881Z,3.98
2019-03-11T00:48:02.314Z,3.90
2019-03-11T00:49:53.622Z,3.98
2019-03-11T00:50:53.536Z,3.96
2019-03-11T00:52:46.425Z,3.89
2019-03-11T00:53:46.227Z,3.88
2019-03-11T00:55:39.013Z,3.90
2019-03-11T00:56:39.048Z,3.84
2019-03-11T00:58:31.781Z,3.93
2019-03-11T00:59:31.698Z,3.93
2019-03-11T01:01:24.488Z,3.84
2019-03-11T01:02:24.441Z,3.95
2019-03-11T01:04:17.181Z,3.98
2019-03-11T01:05:17.100Z,3.96
2019-03-11T01:07:09.866Z,3.84
2019-03-11T01:08:09.769Z,3.84
2019-03-11T01:10:02.544Z,3.90
2019-03-11T01:11:02.522Z,4.00
2019-03-11T01:12:55.214Z,3.99
2019-03-11T01:13:55.154Z,3.84
2019-03-11T01:15:47.927Z,3.89
2019-03-11T01:16:47.838Z,3.86
2019-03-11T01:18:40.611Z,3.88
2019-03-11T01:19:40.519Z,3.86
2019-03-11T01:21:33.287Z,3.92
2019-03-11T01:22:33.210Z,3.89
2019-03-11T01:24:25.986Z,3.93
2019-03-11T01:25:25.914Z,3.98
2019-03-11T01:27:18.672Z,3.98
2019-03-11T01:28:18.602Z,3.90
2019-03-11T01:30:11.370Z,3.92
2019-03-11T01:31:11.292Z,3.86
2019-03-11T01:33:04.226Z,3.81
2019-03-11T01:34:04.135Z,3.95
2019-03-11T01:35:56.811Z,3.95
2019-03-11T01:36:56.732Z,4.07
2019-03-11T01:38:49.644Z,4.26
2019-03-11T01:39:49.484Z,4.24
2019-03-11T01:41:42.224Z,4.21
2019-03-11T01:42:42.116Z,4.21
2019-03-11T01:44:34.915Z,3.99
2019-03-11T01:45:34.832Z,3.84
2019-03-11T01:47:27.790Z,3.96
2019-03-11T01:48:27.614Z,3.98
2019-03-11T01:50:20.453Z,3.98
2019-03-11T01:51:20.383Z,3.93
2019-03-11T01:53:13.153Z,3.92
2019-03-11T01:54:13.048Z,3.96
2019-03-11T01:56:40.883Z,3.89
2019-03-11T01:57:40.801Z,3.95
2019-03-11T01:59:33.572Z,3.90
2019-03-11T02:00:33.513Z,3.96
2019-03-11T02:02:26.310Z,4.00
2019-03-11T02:03:26.355Z,3.90
2019-03-11T02:05:18.944Z,3.86
2019-03-11T02:06:18.863Z,3.84
2019-03-11T02:08:11.630Z,3.90
2019-03-11T02:09:11.553Z,3.89
2019-03-11T02:11:04.295Z,3.90
2019-03-11T02:12:04.297Z,3.98
2019-03-11T02:13:57.052Z,3.93
2019-03-11T02:14:56.933Z,3.88
2019-03-11T02:16:49.698Z,3.86
2019-03-11T02:17:49.625Z,3.89
2019-03-11T02:19:42.391Z,3.92
2019-03-11T02:20:42.320Z,3.90
2019-03-11T02:22:35.059Z,3.98
2019-03-11T02:23:34.990Z,3.95
2019-03-11T02:25:27.788Z,3.95
2019-03-11T02:26:27.704Z,3.89
2019-03-11T02:28:20.458Z,3.88
2019-03-11T02:29:20.443Z,3.86
2019-03-11T02:31:13.181Z,3.89
2019-03-11T02:32:13.103Z,3.88
2019-03-11T02:34:05.859Z,3.93
2019-03-11T02:35:05.782Z,3.88
2019-03-11T02:36:58.543Z,3.86
2019-03-11T02:37:58.468Z,3.86
2019-03-11T02:39:51.249Z,3.80
2019-03-11T02:40:51.159Z,3.80
2019-03-11T02:42:44.066Z,3.90
2019-03-11T02:43:43.895Z,3.86
2019-03-11T02:45:36.667Z,3.95
2019-03-11T02:46:36.600Z,3.80
2019-03-11T02:48:29.429Z,3.86
2019-03-11T02:49:29.295Z,3.75
2019-03-11T02:51:22.087Z,3.81
2019-03-11T02:52:21.961Z,3.84
2019-03-11T02:54:14.793Z,3.72
2019-03-11T02:55:14.659Z,3.72
2019-03-11T02:57:07.416Z,3.77
2019-03-11T02:58:07.361Z,3.86
2019-03-11T03:00:00.293Z,3.78
2019-03-11T03:01:00.072Z,3.78
2019-03-11T03:02:52.909Z,3.63
2019-03-11T03:03:52.747Z,3.64
2019-03-11T03:05:45.524Z,3.54
2019-03-11T03:06:45.435Z,3.54
2019-03-11T03:08:38.197Z,3.70
2019-03-11T03:09:38.130Z,3.64
2019-03-11T03:11:30.968Z,3.57
2019-03-11T03:12:30.826Z,3.68
2019-03-11T03:14:23.589Z,3.57
2019-03-11T03:15:23.641Z,3.59
2019-03-11T03:17:16.322Z,3.63
2019-03-11T03:18:16.202Z,3.53
2019-03-11T03:20:08.975Z,3.54
2019-03-11T03:21:08.906Z,3.52
2019-03-11T03:23:01.680Z,3.52
2019-03-11T03:24:01.615Z,3.56
2019-03-11T03:25:54.383Z,3.62
2019-03-11T03:26:54.296Z,3.63
2019-03-11T03:28:47.055Z,3.54
2019-03-11T03:29:46.982Z,3.62
2019-03-11T03:31:39.748Z,3.45
2019-03-11T03:32:39.666Z,3.46
2019-03-11T03:34:32.470Z,3.44
2019-03-11T03:35:32.414Z,3.52
2019-03-11T03:37:25.164Z,3.56
2019-03-11T03:38:30.882Z,3.35
2019-03-11T03:40:17.844Z,3.44
2019-03-11T03:41:17.744Z,3.35
2019-03-11T03:43:10.506Z,3.44
2019-03-11T03:44:10.431Z,3.49
2019-03-11T03:46:17.457Z,3.46
2019-03-11T03:47:03.144Z,3.52
2019-03-11T03:48:56.035Z,3.52
2019-03-11T03:49:55.801Z,3.44
2019-03-11T03:51:48.637Z,3.46
2019-03-11T03:52:48.513Z,3.45
2019-03-11T03:54:41.292Z,3.44
2019-03-11T03:55:41.217Z,3.53
2019-03-11T03:57:33.964Z,3.46
2019-03-11T03:58:33.912Z,3.45
2019-03-11T04:00:26.652Z,3.46
2019-03-11T04:01:26.577Z,3.54
2019-03-11T04:03:19.313Z,3.54
2019-03-11T04:04:19.242Z,3.56
2019-03-11T04:06:12.046Z,3.44
2019-03-11T04:07:11.988Z,3.56
2019-03-11T04:09:04.734Z,3.54
2019-03-11T04:10:04.689Z,3.56
2019-03-11T04:11:57.422Z,3.50
2019-03-11T04:12:57.340Z,3.53
2019-03-11T04:14:50.094Z,3.60
2019-03-11T04:15:50.026Z,3.57
2019-03-11T04:17:42.783Z,3.50
2019-03-11T04:18:42.707Z,3.41
2019-03-11T04:20:35.510Z,3.44
2019-03-11T04:21:35.416Z,3.44
2019-03-11T04:23:28.185Z,3.44
2019-03-11T04:24:28.115Z,3.44
2019-03-11T04:26:20.861Z,3.45
2019-03-11T04:27:20.780Z,3.46
2019-03-11T04:29:13.559Z,3.50
2019-03-11T04:30:13.541Z,3.44
2019-03-11T04:32:06.239Z,3.39
2019-03-11T04:33:06.151Z,3.44
2019-03-11T04:34:59.070Z,3.52
2019-03-11T04:35:58.986Z,3.45
2019-03-11T04:37:51.784Z,3.59
2019-03-11T04:38:51.699Z,3.53
2019-03-11T04:40:44.463Z,3.57
2019-03-11T04:41:44.381Z,3.63
2019-03-11T04:43:37.134Z,3.59
2019-03-11T04:44:37.057Z,3.63
2019-03-11T04:46:29.823Z,3.49
2019-03-11T04:47:29.748Z,3.44
2019-03-11T04:49:22.517Z,3.62
2019-03-11T04:50:22.438Z,3.54
2019-03-11T04:52:15.205Z,3.56
2019-03-11T04:53:15.118Z,3.56
2019-03-11T04:55:07.880Z,3.62
2019-03-11T04:56:07.797Z,3.62
2019-03-11T04:58:00.555Z,3.52
2019-03-11T04:59:00.481Z,3.54
2019-03-11T05:00:53.257Z,3.59
2019-03-11T05:01:53.162Z,3.72
2019-03-11T05:03:46.386Z,3.63
2019-03-11T05:04:45.856Z,3.64
2019-03-11T05:06:38.611Z,3.63
2019-03-11T05:07:38.546Z,3.63
2019-03-11T05:09:31.296Z,3.64
2019-03-11T05:10:31.239Z,3.71
2019-03-11T05:12:24.038Z,3.64
2019-03-11T05:13:23.953Z,3.67
2019-03-11T05:15:16.713Z,3.67
2019-03-11T05:16:16.647Z,3.63
2019-03-11T05:18:09.506Z,3.72
2019-03-11T05:19:09.341Z,3.59
2019-03-11T05:21:02.139Z,3.71
2019-03-11T05:22:02.029Z,3.62
2019-03-11T05:23:54.789Z,3.68
2019-03-11T05:24:54.715Z,3.68
2019-03-11T05:26:47.489Z,3.78
2019-03-11T05:27:47.387Z,3.74
2019-03-11T05:29:40.140Z,3.78
2019-03-11T05:30:40.071Z,3.75
2019-03-11T05:32:32.843Z,3.75
2019-03-11T05:33:32.751Z,3.82
2019-03-11T05:35:25.549Z,3.78
2019-03-11T05:36:25.475Z,3.89
2019-03-11T05:38:18.298Z,3.78
2019-03-11T05:39:18.200Z,3.82
2019-03-11T05:41:10.985Z,3.89
2019-03-11T05:42:10.869Z,3.80
2019-03-11T05:44:03.636Z,3.71
2019-03-11T05:45:03.555Z,3.81
2019-03-11T05:46:56.331Z,3.89
2019-03-11T05:47:56.264Z,3.82
2019-03-11T05:49:49.033Z,3.89
2019-03-11T05:50:49.017Z,3.82
2019-03-11T05:52:41.786Z,3.90
2019-03-11T05:53:41.663Z,3.88
2019-03-11T05:55:34.449Z,3.80
2019-03-11T05:56:34.408Z,3.86
2019-03-11T05:58:27.160Z,3.88
2019-03-11T05:59:27.075Z,3.86
2019-03-11T06:01:19.886Z,3.93
2019-03-11T06:02:19.945Z,3.89
2019-03-11T06:04:12.572Z,3.92
2019-03-11T06:05:12.514Z,3.89
2019-03-11T06:07:05.338Z,3.92
2019-03-11T06:08:05.268Z,4.07
2019-03-11T06:09:58.013Z,4.08
2019-03-11T06:10:57.950Z,4.02
2019-03-11T06:12:50.786Z,3.99
2019-03-11T06:13:50.736Z,4.08
2019-03-11T06:15:43.452Z,4.02
2019-03-11T06:16:43.384Z,4.02
2019-03-11T06:18:36.147Z,4.07
2019-03-11T06:19:36.065Z,4.10
2019-03-11T06:21:28.852Z,4.20
2019-03-11T06:22:28.771Z,4.24
2019-03-11T06:24:21.551Z,4.21
2019-03-11T06:25:21.497Z,4.20
2019-03-11T06:27:14.276Z,4.26
2019-03-11T06:28:14.164Z,4.20
2019-03-11T06:30:08.139Z,4.31
2019-03-11T06:31:06.875Z,4.32
2019-03-11T06:32:59.854Z,4.32
2019-03-11T06:33:59.833Z,4.31
2019-03-11T06:35:52.611Z,4.34
2019-03-11T06:36:52.742Z,4.36
2019-03-11T06:38:45.346Z,4.51
2019-03-11T06:39:45.225Z,4.46
2019-03-11T06:41:38.016Z,4.49
2019-03-11T06:42:37.904Z,4.49
2019-03-11T06:44:30.740Z,4.61
2019-03-11T06:45:30.641Z,4.59
2019-03-11T06:47:23.469Z,4.75
2019-03-11T06:48:23.365Z,4.64
2019-03-11T06:50:16.089Z,4.59
2019-03-11T06:51:16.017Z,4.69
2019-03-11T06:53:08.921Z,4.65
2019-03-11T06:54:08.744Z,4.65
2019-03-11T06:56:01.539Z,4.62
2019-03-11T06:57:01.466Z,4.59
2019-03-11T06:58:54.261Z,4.69
2019-03-11T06:59:54.193Z,4.67
2019-03-11T07:01:46.992Z,4.67
2019-03-11T07:02:47.044Z,4.51
2019-03-11T07:04:39.715Z,4.64
2019-03-11T07:05:39.621Z,4.59
2019-03-11T07:07:32.405Z,4.67
2019-03-11T07:08:32.316Z,4.80
2019-03-11T07:10:25.070Z,4.84
2019-03-11T07:11:24.997Z,4.83
2019-03-11T07:13:17.861Z,4.93
2019-03-11T07:14:17.780Z,4.88
2019-03-11T07:16:10.527Z,4.93
2019-03-11T07:17:10.460Z,4.88
2019-03-11T07:19:03.238Z,4.91
2019-03-11T07:20:03.172Z,4.97
2019-03-11T07:21:55.959Z,4.86
2019-03-11T07:22:55.885Z,4.80
2019-03-11T07:24:48.677Z,4.93
2019-03-11T07:25:48.587Z,4.86
2019-03-11T07:27:41.352Z,5.05
2019-03-11T07:28:41.318Z,5.24
2019-03-11T07:30:34.037Z,5.81
2019-03-11T07:31:33.962Z,5.77
2019-03-11T07:33:26.733Z,5.92
2019-03-11T07:34:26.648Z,5.93
2019-03-11T07:36:19.435Z,5.75
2019-03-11T07:37:19.459Z,5.59
2019-03-11T07:39:12.180Z,5.47
2019-03-11T07:40:12.078Z,5.40
2019-03-11T07:42:04.844Z,5.40
2019-03-11T07:43:04.815Z,5.27
2019-03-11T07:44:57.639Z,5.24
2019-03-11T07:45:57.553Z,5.24
2019-03-11T07:47:50.290Z,5.11
2019-03-11T07:48:50.213Z,5.08
2019-03-11T07:50:43.019Z,5.22
2019-03-11T07:51:42.945Z,5.17
2019-03-11T07:53:35.740Z,5.11
2019-03-11T07:54:36.218Z,5.14
2019-03-11T07:56:28.498Z,5.14
2019-03-11T07:57:28.457Z,4.99
2019-03-11T07:59:21.313Z,5.04
2019-03-11T08:00:21.197Z,5.06
2019-03-11T08:02:14.052Z,5.08
2019-03-11T08:03:13.971Z,5.09
2019-03-11T08:05:06.762Z,5.05
2019-03-11T08:06:17.798Z,5.01
2019-03-11T08:07:59.521Z,5.05
2019-03-11T08:08:59.378Z,5.05
2019-03-11T08:10:52.143Z,5.06
2019-03-11T08:11:52.105Z,5.06
2019-03-11T08:13:44.890Z,5.06
2019-03-11T08:14:44.803Z,5.02
2019-03-11T08:16:37.602Z,5.06
2019-03-11T08:17:37.529Z,5.05
2019-03-11T08:19:30.314Z,5.12
2019-03-11T08:20:30.213Z,5.17
2019-03-11T08:22:22.964Z,5.04
2019-03-11T08:23:22.899Z,5.08
2019-03-11T08:25:15.709Z,5.14
2019-03-11T08:26:15.590Z,5.14
2019-03-11T08:28:08.425Z,5.06
2019-03-11T08:29:08.298Z,5.15
2019-03-11T08:31:01.047Z,5.15
2019-03-11T08:32:01.034Z,5.29
2019-03-11T08:33:53.775Z,5.49
2019-03-11T08:34:53.701Z,5.48
2019-03-11T08:36:46.468Z,5.44
2019-03-11T08:37:46.379Z,5.35
2019-03-11T08:39:39.224Z,5.37
2019-03-11T08:40:39.071Z,5.29
2019-03-11T08:42:31.885Z,5.40
2019-03-11T08:43:31.825Z,5.26
2019-03-11T08:45:24.639Z,5.26
2019-03-11T08:46:24.556Z,5.27
2019-03-11T08:48:17.393Z,5.40
2019-03-11T08:49:17.235Z,5.23
2019-03-11T08:51:09.991Z,5.37
2019-03-11T08:52:09.942Z,5.47
2019-03-11T08:54:02.730Z,5.48
2019-03-11T08:55:02.634Z,5.45
2019-03-11T08:56:55.671Z,5.48
2019-03-11T08:57:55.604Z,5.60
2019-03-11T08:59:48.352Z,5.67
2019-03-11T09:00:48.265Z,5.55
2019-03-11T09:02:41.070Z,5.51
2019-03-11T09:03:40.969Z,5.47
2019-03-11T09:05:33.967Z,5.51
2019-03-11T09:06:33.886Z,5.44
2019-03-11T09:08:26.738Z,5.40
2019-03-11T09:09:26.775Z,5.33
2019-03-11T09:11:19.410Z,5.40
2019-03-11T09:12:19.339Z,5.40
2019-03-11T09:14:12.110Z,5.35
2019-03-11T09:15:12.037Z,5.40
2019-03-11T09:17:04.962Z,5.49
2019-03-11T09:18:04.719Z,5.51
2019-03-11T09:19:57.487Z,5.55
2019-03-11T09:20:57.398Z,5.60
2019-03-11T09:22:50.155Z,5.58
2019-03-11T09:23:50.076Z,5.62
2019-03-11T09:25:42.863Z,5.74
2019-03-11T09:26:42.774Z,5.77
2019-03-11T09:28:35.754Z,5.83
2019-03-11T09:29:35.654Z,5.92
2019-03-11T09:31:28.394Z,5.90
2019-03-11T09:32:28.318Z,5.87
2019-03-11T09:34:21.102Z,5.95
2019-03-11T09:35:21.037Z,6.02
2019-03-11T09:37:13.894Z,6.35
2019-03-11T09:38:13.689Z,6.45
2019-03-11T09:40:06.685Z,6.57
2019-03-11T09:41:06.741Z,6.69
2019-03-11T09:42:59.367Z,6.96
2019-03-11T09:43:59.292Z,6.93
2019-03-11T09:45:52.709Z,6.87
2019-03-11T09:46:52.041Z,6.79
2019-03-11T09:48:45.068Z,6.64
2019-03-11T09:49:44.826Z,6.63
2019-03-11T09:51:37.534Z,6.60
2019-03-11T09:52:37.487Z,6.53
2019-03-11T09:54:30.233Z,6.28
2019-03-11T09:55:30.123Z,6.42
2019-03-11T09:57:22.926Z,6.33
2019-03-11T09:58:22.838Z,6.32
2019-03-11T10:00:15.599Z,6.20
2019-03-11T10:01:15.514Z,6.20
2019-03-11T10:03:08.295Z,6.01
2019-03-11T10:04:08.211Z,5.96
2019-03-11T10:06:01.007Z,5.87
2019-03-11T10:07:00.943Z,5.85
2019-03-11T10:08:53.759Z,5.70
2019-03-11T10:09:53.636Z,5.88
2019-03-11T10:11:46.383Z,5.78
2019-03-11T10:12:46.285Z,5.77
2019-03-11T10:14:39.067Z,5.80
2019-03-11T10:15:38.979Z,5.75
2019-03-11T10:17:31.790Z,5.84
2019-03-11T10:18:31.703Z,5.80
2019-03-11T10:20:24.491Z,5.80
2019-03-11T10:21:24.407Z,5.92
2019-03-11T10:23:17.168Z,5.87
2019-03-11T10:24:17.103Z,5.85
2019-03-11T10:26:09.931Z,5.88
2019-03-11T10:27:09.811Z,5.98
2019-03-11T10:29:02.585Z,6.24
2019-03-11T10:30:02.545Z,6.27
2019-03-11T10:31:55.290Z,6.39
2019-03-11T10:32:55.260Z,6.36
2019-03-11T10:34:47.982Z,6.39
2019-03-11T10:35:47.939Z,6.38
2019-03-11T10:37:40.681Z,6.50
2019-03-11T10:38:40.616Z,6.57
2019-03-11T10:40:33.369Z,6.71
2019-03-11T10:41:33.291Z,6.65
2019-03-11T10:43:26.052Z,6.63
2019-03-11T10:44:25.988Z,6.48
2019-03-11T10:46:18.766Z,6.57
2019-03-11T10:47:18.687Z,6.57
2019-03-11T10:49:11.469Z,6.48
2019-03-11T10:50:11.376Z,6.36
2019-03-11T10:52:04.204Z,6.36
2019-03-11T10:53:04.082Z,6.20
2019-03-11T10:54:56.870Z,6.13
2019-03-11T10:55:56.784Z,5.92
2019-03-11T10:57:49.615Z,5.78
2019-03-11T10:58:49.498Z,5.80
2019-03-11T11:00:42.284Z,5.73
2019-03-11T11:01:42.193Z,5.74
2019-03-11T11:03:34.972Z,5.74
2019-03-11T11:04:34.902Z,5.70
2019-03-11T11:06:27.695Z,5.70
2019-03-11T11:07:27.589Z,5.69
2019-03-11T11:09:20.357Z,5.69
2019-03-11T11:10:20.280Z,5.78
2019-03-11T11:12:13.049Z,5.80
2019-03-11T11:13:12.975Z,5.93
2019-03-11T11:15:05.735Z,5.84
2019-03-11T11:16:05.651Z,5.74
2019-03-11T11:17:58.406Z,5.78
2019-03-11T11:18:58.342Z,5.75
2019-03-11T11:20:51.364Z,5.77
2019-03-11T11:21:51.293Z,5.66
2019-03-11T11:23:44.503Z,5.62
2019-03-11T11:24:44.312Z,5.59
2019-03-11T11:26:37.136Z,5.47
2019-03-11T11:27:37.265Z,5.44
2019-03-11T11:29:29.938Z,5.24
2019-03-11T11:30:29.956Z,5.15
2019-03-11T11:32:22.474Z,5.22
2019-03-11T11:33:22.480Z,5.14
2019-03-11T11:35:15.311Z,5.05
2019-03-11T11:36:15.175Z,5.06
2019-03-11T11:38:07.933Z,5.08
2019-03-11T11:39:08.090Z,5.02
2019-03-11T11:41:00.706Z,5.14
2019-03-11T11:42:00.630Z,5.05
2019-03-11T11:43:53.897Z,5.26
2019-03-11T11:44:53.391Z,5.12
2019-03-11T11:46:46.357Z,5.04
2019-03-11T11:47:46.175Z,5.06
2019-03-11T11:49:39.164Z,4.96
2019-03-11T11:50:38.902Z,5.02
2019-03-11T11:52:32.115Z,5.15
2019-03-11T11:53:31.921Z,5.20
2019-03-11T11:55:24.810Z,5.11
2019-03-11T11:56:25.625Z,5.22
2019-03-11T11:58:18.354Z,5.04
2019-03-11T11:59:18.245Z,5.09
2019-03-11T12:01:11.050Z,5.19
2019-03-11T12:02:10.946Z,5.20
2019-03-11T12:04:03.727Z,5.24
2019-03-11T12:05:03.637Z,5.32
2019-03-11T12:06:56.527Z,5.24
2019-03-11T12:07:56.438Z,5.27
2019-03-11T12:09:49.363Z,5.27
2019-03-11T12:10:49.189Z,5.29
2019-03-11T12:12:42.080Z,5.40
2019-03-11T12:13:42.043Z,5.42
2019-03-11T12:15:34.788Z,5.45
2019-03-11T12:16:34.743Z,5.44
2019-03-11T12:18:27.609Z,5.26
2019-03-11T12:19:27.426Z,5.30
2019-03-11T12:21:20.359Z,5.30
2019-03-11T12:22:20.237Z,5.33
2019-03-11T12:24:13.101Z,5.33
2019-03-11T12:25:13.101Z,5.29
2019-03-11T12:27:05.715Z,5.37
2019-03-11T12:28:05.637Z,5.41
2019-03-11T12:29:58.602Z,5.37
2019-03-11T12:30:58.454Z,5.23
2019-03-11T12:32:51.324Z,5.22
2019-03-11T12:33:51.165Z,5.41
2019-03-11T12:35:44.107Z,5.41
2019-03-11T12:36:44.036Z,5.49
2019-03-11T12:38:37.119Z,5.51
2019-03-11T12:39:36.926Z,5.49
2019-03-11T12:41:29.901Z,5.55
2019-03-11T12:42:29.827Z,5.63
2019-03-11T12:44:22.645Z,5.62
2019-03-11T12:45:22.604Z,5.69
2019-03-11T12:47:16.280Z,5.74
2019-03-11T12:48:16.230Z,5.75
2019-03-11T12:50:08.975Z,5.75
2019-03-11T12:51:08.890Z,5.63
2019-03-11T12:53:01.750Z,5.69
2019-03-11T12:54:01.761Z,5.74
2019-03-11T12:55:54.579Z,5.74
2019-03-11T12:56:54.409Z,5.65
2019-03-11T12:58:47.221Z,5.60
2019-03-11T12:59:47.174Z,5.60
2019-03-11T13:01:39.982Z,5.52
2019-03-11T13:02:39.823Z,5.56
2019-03-11T13:04:32.618Z,5.42
2019-03-11T13:05:32.537Z,5.48
2019-03-11T13:07:25.310Z,5.51
2019-03-11T13:08:25.233Z,5.44
2019-03-11T13:10:17.994Z,5.44
2019-03-11T13:11:17.938Z,5.42
2019-03-11T13:13:10.705Z,5.52
2019-03-11T13:14:10.624Z,5.42
2019-03-11T13:16:03.645Z,5.38
2019-03-11T13:17:03.354Z,5.33
2019-03-11T13:18:56.179Z,5.41
2019-03-11T13:19:56.042Z,5.40
2019-03-11T13:21:48.938Z,5.27
2019-03-11T13:22:48.907Z,5.37
2019-03-11T13:24:41.674Z,5.38
2019-03-11T13:25:41.674Z,5.45
2019-03-11T13:27:34.398Z,5.42
2019-03-11T13:28:34.810Z,5.51
2019-03-11T13:30:27.330Z,5.48
2019-03-11T13:31:26.986Z,5.48
2019-03-11T13:33:20.447Z,5.37
2019-03-11T13:34:19.690Z,5.55
2019-03-11T13:36:12.535Z,5.67
2019-03-11T13:37:12.362Z,5.74
2019-03-11T13:39:05.167Z,5.69
2019-03-11T13:40:05.074Z,5.81
2019-03-11T13:41:57.954Z,5.87
2019-03-11T13:42:57.889Z,5.84
2019-03-11T13:44:50.805Z,5.90
2019-03-11T13:45:50.559Z,6.01
2019-03-11T13:47:43.646Z,5.96
2019-03-11T13:48:43.502Z,6.10
2019-03-11T13:50:36.346Z,6.21
2019-03-11T13:51:36.450Z,6.20
2019-03-11T13:53:29.257Z,6.21
2019-03-11T13:54:29.089Z,6.20
2019-03-11T13:56:21.940Z,6.19
2019-03-11T13:57:21.861Z,6.36
2019-03-11T13:59:14.886Z,6.36
2019-03-11T14:00:14.792Z,6.50
2019-03-11T14:02:07.758Z,6.48
2019-03-11T14:03:07.636Z,6.50
2019-03-11T14:05:00.345Z,6.43
2019-03-11T14:06:00.177Z,6.42
2019-03-11T14:07:53.096Z,6.51
2019-03-11T14:08:53.261Z,6.45
2019-03-11T14:10:45.853Z,6.48
2019-03-11T14:11:45.746Z,6.50
2019-03-11T14:13:38.557Z,6.53
2019-03-11T14:14:38.371Z,6.51
2019-03-11T14:16:31.213Z,6.48
2019-03-11T14:17:31.126Z,6.50
2019-03-11T14:19:24.166Z,6.50
2019-03-11T14:20:24.050Z,6.51
2019-03-11T14:22:16.868Z,6.43
2019-03-11T14:23:17.042Z,6.50
2019-03-11T14:25:09.575Z,6.58
2019-03-11T14:26:09.602Z,6.58
2019-03-11T14:28:02.303Z,6.60
2019-03-11T14:29:02.222Z,6.61
2019-03-11T14:30:55.165Z,6.64
2019-03-11T14:31:55.018Z,6.69
2019-03-11T14:33:48.027Z,6.65
2019-03-11T14:34:47.968Z,6.65
2019-03-11T14:36:40.592Z,6.64
2019-03-11T14:37:40.463Z,6.58
2019-03-11T14:39:33.464Z,6.78
2019-03-11T14:40:33.208Z,6.83
2019-03-11T14:42:26.491Z,6.86
2019-03-11T14:43:25.861Z,6.87
2019-03-11T14:45:18.752Z,6.76
2019-03-11T14:46:18.622Z,6.75
2019-03-11T14:48:11.580Z,6.78
2019-03-11T14:49:11.435Z,6.81
2019-03-11T14:51:04.158Z,6.75
2019-03-11T14:52:04.071Z,6.78
2019-03-11T14:53:57.099Z,6.90
2019-03-11T14:54:57.042Z,6.91
2019-03-11T14:56:49.946Z,6.99
2019-03-11T14:57:49.868Z,6.99
2019-03-11T14:59:42.776Z,7.27
2019-03-11T15:00:42.586Z,7.34
2019-03-11T15:02:35.458Z,7.47
2019-03-11T15:03:35.364Z,7.41
2019-03-11T15:05:28.521Z,7.39
2019-03-11T15:06:28.194Z,7.32
2019-03-11T15:08:21.172Z,7.30
2019-03-11T15:09:21.088Z,7.33
2019-03-11T15:11:13.924Z,7.26
2019-03-11T15:12:13.842Z,7.21
2019-03-11T15:14:06.829Z,7.15
2019-03-11T15:15:07.400Z,7.23
2019-03-11T15:17:00.485Z,7.07
2019-03-11T15:18:00.334Z,7.14
2019-03-11T15:19:53.107Z,7.18
2019-03-11T15:20:53.025Z,7.16
2019-03-11T15:22:45.938Z,7.11
2019-03-11T15:23:45.827Z,7.19
2019-03-11T15:25:38.645Z,7.15
2019-03-11T15:26:38.472Z,7.16
2019-03-11T15:28:31.344Z,7.08
2019-03-11T15:29:31.209Z,7.11
2019-03-11T15:31:24.144Z,7.15
2019-03-11T15:32:24.069Z,7.19
2019-03-11T15:34:16.898Z,7.18
2019-03-11T15:35:16.802Z,7.09
2019-03-11T15:37:09.755Z,7.12
2019-03-11T15:38:09.664Z,7.18
2019-03-11T15:40:02.601Z,7.26
2019-03-11T15:41:02.686Z,7.39
2019-03-11T15:42:55.374Z,7.37
2019-03-11T15:43:55.148Z,7.42
2019-03-11T15:45:48.105Z,7.45
2019-03-11T15:46:48.455Z,7.42
2019-03-11T15:48:40.892Z,7.30
2019-03-11T15:49:40.850Z,7.33
2019-03-11T15:51:36.867Z,7.27
2019-03-11T15:52:33.616Z,7.33
2019-03-11T15:54:26.605Z,7.50
2019-03-11T15:55:26.448Z,7.50
2019-03-11T15:57:19.155Z,7.62
2019-03-11T15:58:19.060Z,7.70
2019-03-11T16:00:12.028Z,7.50
2019-03-11T16:01:11.863Z,7.42
2019-03-11T16:03:04.896Z,7.32
2019-03-11T16:04:05.010Z,7.27
2019-03-11T16:05:57.754Z,7.12
2019-03-11T16:06:57.568Z,7.11
2019-03-11T16:08:49.743Z,7.15
2019-03-11T16:09:49.583Z,7.08
2019-03-11T16:11:43.271Z,7.08
2019-03-11T16:12:43.203Z,7.11
2019-03-11T16:14:36.168Z,7.09
2019-03-11T16:15:35.945Z,7.04
2019-03-11T16:17:28.786Z,6.99
2019-03-11T16:18:28.724Z,6.90
2019-03-11T16:20:21.591Z,6.94
2019-03-11T16:21:21.512Z,6.82
2019-03-11T16:23:14.356Z,6.81
2019-03-11T16:24:14.299Z,6.82
2019-03-11T16:26:07.175Z,6.79
2019-03-11T16:27:07.131Z,6.68
2019-03-11T16:29:00.058Z,6.68
2019-03-11T16:29:59.938Z,6.68
2019-03-11T16:31:52.773Z,6.71
2019-03-11T16:32:59.511Z,6.58
2019-03-11T16:34:45.795Z,6.58
2019-03-11T16:35:45.393Z,6.64
2019-03-11T16:37:38.231Z,6.61
2019-03-11T16:38:38.183Z,6.58
2019-03-11T16:40:30.976Z,6.51
2019-03-11T16:41:30.903Z,6.50
2019-03-11T16:43:24.631Z,6.50
2019-03-11T16:44:24.742Z,6.42
2019-03-11T16:46:17.225Z,6.51
2019-03-11T16:47:17.339Z,6.48
2019-03-11T16:49:10.017Z,6.33
2019-03-11T16:50:09.882Z,6.38
2019-03-11T16:52:02.659Z,6.42
2019-03-11T16:53:02.605Z,6.38
2019-03-11T16:54:55.369Z,6.27
2019-03-11T16:55:55.297Z,6.25
2019-03-11T16:57:48.148Z,6.20
2019-03-11T16:58:48.033Z,6.24
2019-03-11T17:00:40.832Z,6.10
2019-03-11T17:01:40.756Z,6.03
2019-03-11T17:03:33.601Z,6.06
2019-03-11T17:04:33.446Z,5.95
2019-03-11T17:06:26.269Z,6.01
2019-03-11T17:07:26.232Z,5.98
2019-03-11T17:09:18.969Z,6.01
2019-03-11T17:10:18.881Z,5.93
2019-03-11T17:12:11.606Z,5.98
2019-03-11T17:13:11.539Z,5.95
2019-03-11T17:15:04.371Z,5.92
2019-03-11T17:16:04.228Z,5.83
2019-03-11T17:17:57.020Z,5.85
2019-03-11T17:18:56.899Z,5.87
2019-03-11T17:20:49.721Z,5.83
2019-03-11T17:21:49.707Z,5.88
2019-03-11T17:23:42.521Z,5.88
2019-03-11T17:24:42.354Z,5.87
2019-03-11T17:26:35.153Z,5.88
2019-03-11T17:27:35.130Z,5.85
2019-03-11T17:29:27.826Z,5.98
2019-03-11T17:30:27.834Z,5.96
2019-03-11T17:32:20.819Z,6.01
2019-03-11T17:33:20.527Z,6.08
2019-03-11T17:35:13.486Z,6.19
2019-03-11T17:36:13.313Z,6.10
2019-03-11T17:38:06.073Z,6.01
2019-03-11T17:39:06.035Z,6.08
2019-03-11T17:40:58.724Z,5.98
2019-03-11T17:41:58.660Z,5.90
2019-03-11T17:43:51.567Z,5.80
2019-03-11T17:44:51.467Z,5.75
2019-03-11T17:46:44.334Z,5.80
2019-03-11T17:47:44.251Z,5.77
2019-03-11T17:49:37.341Z,5.74
2019-03-11T17:50:37.046Z,5.75
2019-03-11T17:52:29.820Z,5.69
2019-03-11T17:53:29.743Z,5.73
2019-03-11T17:55:22.569Z,5.65
2019-03-11T17:56:22.467Z,5.66
2019-03-11T17:58:15.315Z,5.65
2019-03-11T17:59:15.210Z,5.67
2019-03-11T18:01:08.098Z,5.69
2019-03-11T18:02:08.042Z,5.60
2019-03-11T18:04:00.863Z,5.55
2019-03-11T18:05:00.840Z,5.51
2019-03-11T18:06:53.670Z,5.51
2019-03-11T18:07:53.660Z,5.51
2019-03-11T18:09:46.393Z,5.56
2019-03-11T18:10:46.285Z,5.59
2019-03-11T18:12:39.115Z,5.56
2019-03-11T18:13:39.115Z,5.51
2019-03-11T18:15:31.885Z,5.15
2019-03-11T18:16:31.797Z,5.04
2019-03-11T18:18:32.749Z,4.87
2019-03-11T18:19:24.481Z,4.72
2019-03-11T18:21:17.342Z,4.59
2019-03-11T18:22:17.304Z,4.56
2019-03-11T18:24:10.036Z,4.50
2019-03-11T18:25:10.327Z,4.44
2019-03-11T18:27:02.648Z,4.39
2019-03-11T18:28:02.715Z,4.32
2019-03-11T18:29:56.093Z,4.31
2019-03-11T18:30:55.302Z,4.26
2019-03-11T18:32:48.177Z,4.28
2019-03-11T18:33:48.061Z,4.32
2019-03-11T18:35:41.140Z,4.21
2019-03-11T18:36:40.859Z,4.28
2019-03-11T18:38:33.618Z,4.31
2019-03-11T18:39:33.565Z,4.28
2019-03-11T18:41:26.353Z,4.34
2019-03-11T18:42:28.383Z,4.31
2019-03-11T18:44:19.083Z,4.26
2019-03-11T18:45:18.977Z,4.24
2019-03-11T18:47:11.769Z,4.31
2019-03-11T18:48:11.673Z,4.32
2019-03-11T18:50:04.411Z,4.29
2019-03-11T18:51:10.792Z,4.24
2019-03-11T18:52:57.112Z,4.25
2019-03-11T18:53:57.089Z,4.29
2019-03-11T18:55:49.822Z,4.26
2019-03-11T18:56:49.747Z,4.20
2019-03-11T18:58:42.536Z,4.28
2019-03-11T18:59:42.408Z,4.18
2019-03-11T19:01:35.229Z,4.21
2019-03-11T19:02:35.158Z,4.10
2019-03-11T19:04:27.933Z,4.16
2019-03-11T19:05:27.866Z,4.10
2019-03-11T19:07:20.620Z,4.04
2019-03-11T19:08:20.573Z,4.02
2019-03-11T19:10:13.338Z,3.95